SGAS/ASU METAR and TAF weather

Enter ICAO airport designator
Station Type Date Time Source
SGAS METAR 2022/09/26 09:00 UTC NOAA

SGAS 260900Z 09004KT CAVOK 18/17 Q1014


Station Type Date Time Source
SGAS Decoded METAR 2022/09/26 09:00 UTC NOAA

Asuncion / Aeropuerto, Paraguay (SGAS) 25-16S 057-38W 101M
Sep 26, 2022 - 05:00 AM EDT / 2022.09.26 0900 UTC
Wind: from the E (090 degrees) at 5 MPH (4 KT):0
Visibility: greater than 7 mile(s):0
Temperature: 64 F (18 C)
Dew Point: 62 F (17 C)
Relative Humidity: 93%
Pressure (altimeter): 29.94 in. Hg (1014 hPa)
ob: SGAS 260900Z 09004KT CAVOK 18/17 Q1014
cycle: 9

Station Type Date Time Source
SGAS TAF 2022/09/26 06:27 UTC NOAA

TAF TAF SGAS 260525Z 2606/2706 170004KT 9999 FEW020 TX27/2619Z TN15/2710Z PROB30
TEMPO 2606/2609 9999 -RA BKN015 OVC020
BECMG
BECMG 2610/2613 VRB08KT 9999 BKN015
BECMG 2615/2619 9999 BKN027

Example: see airport list